Time;durP1;ratioP1;P1;durP2;ratioP2;P2;SDS_P1;SDS_P2;PMS_P1;PMS_P2;Temp;Humidity;BMP_temperature;BMP_pressure;BME280_temperature;BME280_humidity;BME280_pressure;Samples;Min_cycle;Max_cycle;Signal;HPM_P1;HPM_P2
2022/08/13 00:01:26;;;;;;;10.68;6.47;;;22.80;88.80;;;;;;5071570;28;20027;-76
2022/08/13 00:03:55;;;;;;;7.75;5.95;;;22.70;89.00;;;;;;5061497;28;20400;-75
2022/08/13 00:09:07;;;;;;;9.15;6.43;;;22.60;89.50;;;;;;5071833;28;20115;-75
2022/08/13 00:14:23;;;;;;;9.75;6.43;;;22.60;89.90;;;;;;5066338;28;20437;-75
2022/08/13 00:16:50;;;;;;;9.52;6.40;;;22.50;90.00;;;;;;5053505;28;20029;-75
2022/08/13 00:19:16;;;;;;;9.40;6.45;;;22.50;90.00;;;;;;5071860;28;20484;-76
2022/08/13 00:21:42;;;;;;;11.98;6.63;;;22.50;90.00;;;;;;5059833;28;20017;-75
2022/08/13 00:24:07;;;;;;;11.90;6.82;;;22.50;90.00;;;;;;5057353;28;20024;-75
2022/08/13 00:26:33;;;;;;;10.18;6.68;;;22.50;90.00;;;;;;5069556;28;20472;-75
2022/08/13 00:29:00;;;;;;;13.07;6.82;;;22.40;90.00;;;;;;5054401;28;20032;-75
2022/08/13 00:31:27;;;;;;;12.05;6.97;;;22.40;90.00;;;;;;5070899;28;20035;-76
2022/08/13 00:33:54;;;;;;;8.88;6.90;;;22.40;90.00;;;;;;5071019;28;20027;-75
2022/08/13 00:36:21;;;;;;;9.52;6.82;;;22.30;90.00;;;;;;5071546;28;20024;-74
2022/08/13 00:38:48;;;;;;;9.93;7.00;;;22.30;90.00;;;;;;5070635;28;20129;-75
2022/08/13 00:41:37;;;;;;;11.98;6.75;;;22.20;90.00;;;;;;5070860;28;20483;-76
2022/08/13 00:44:00;;;;;;;12.40;7.32;;;22.20;90.00;;;;;;5071119;28;20063;-75
2022/08/13 00:46:25;;;;;;;9.43;7.35;;;22.20;90.10;;;;;;5063168;28;20017;-74
2022/08/13 00:48:53;;;;;;;9.07;6.47;;;22.10;90.20;;;;;;5064296;28;20032;-75
2022/08/13 00:51:23;;;;;;;10.02;7.10;;;22.10;90.20;;;;;;5057051;28;20031;-76
2022/08/13 00:53:49;;;;;;;11.75;7.03;;;22.00;90.30;;;;;;5070936;28;20024;-75
2022/08/13 00:56:16;;;;;;;12.13;7.57;;;22.00;90.30;;;;;;5071290;28;20077;-76
2022/08/13 00:58:42;;;;;;;16.60;7.80;;;21.90;90.50;;;;;;5061247;28;20024;-76
2022/08/13 01:01:09;;;;;;;12.45;8.30;;;21.90;90.40;;;;;;5070190;28;20372;-76
2022/08/13 01:03:36;;;;;;;11.65;8.30;;;21.80;90.40;;;;;;5064498;28;20020;-75
2022/08/13 01:06:04;;;;;;;11.02;7.72;;;21.80;90.90;;;;;;5070093;28;20108;-75
2022/08/13 01:08:34;;;;;;;12.32;7.97;;;21.70;90.70;;;;;;5057900;28;20362;-75
2022/08/13 01:11:11;;;;;;;12.70;7.82;;;21.70;90.80;;;;;;5066354;28;20485;-76
2022/08/13 01:13:40;;;;;;;10.30;7.90;;;21.60;91.00;;;;;;5070914;28;20031;-76
2022/08/13 01:16:08;;;;;;;11.57;7.18;;;21.60;91.10;;;;;;5053159;28;20027;-76
2022/08/13 01:18:40;;;;;;;10.77;7.65;;;21.50;91.00;;;;;;5070529;28;20050;-75
2022/08/13 01:21:22;;;;;;;9.63;7.35;;;21.50;91.00;;;;;;5070216;28;20027;-76
2022/08/13 01:23:50;;;;;;;11.25;6.97;;;21.50;91.00;;;;;;5057320;28;20035;-76
2022/08/13 01:26:18;;;;;;;9.85;7.45;;;21.50;91.00;;;;;;5067728;28;20043;-76
2022/08/13 01:28:46;;;;;;;10.10;7.20;;;21.50;91.00;;;;;;5056327;28;20031;-75
2022/08/13 01:31:15;;;;;;;8.93;7.20;;;21.50;91.00;;;;;;5058599;28;20029;-77
2022/08/13 01:33:43;;;;;;;10.25;7.07;;;21.40;91.10;;;;;;5066963;28;20032;-76
2022/08/13 01:36:09;;;;;;;11.25;6.93;;;21.40;91.10;;;;;;5060285;28;20044;-76
2022/08/13 01:38:36;;;;;;;11.85;6.65;;;21.40;91.10;;;;;;5064520;28;20236;-76
2022/08/13 01:41:08;;;;;;;12.23;7.13;;;21.30;91.10;;;;;;5058003;28;20008;-76
2022/08/13 01:43:36;;;;;;;10.00;6.60;;;21.30;91.20;;;;;;5041023;28;20033;-75
2022/08/13 01:46:02;;;;;;;7.45;6.45;;;21.20;91.20;;;;;;5064304;28;20021;-76
2022/08/13 01:51:23;;;;;;;7.95;6.35;;;21.10;91.20;;;;;;5052109;28;20036;-76
2022/08/13 01:53:51;;;;;;;9.70;6.70;;;21.00;91.20;;;;;;5062071;28;20505;-76
2022/08/13 01:56:21;;;;;;;9.77;6.35;;;21.00;91.20;;;;;;5038722;28;20111;-76
2022/08/13 01:58:49;;;;;;;9.70;6.97;;;21.00;91.20;;;;;;5070609;28;20085;-75
2022/08/13 02:01:15;;;;;;;9.63;7.05;;;20.90;91.10;;;;;;5053301;28;20021;-76
2022/08/13 02:03:49;;;;;;;7.35;5.88;;;20.90;91.10;;;;;;5061416;28;20517;-75
2022/08/13 02:06:24;;;;;;;8.10;6.57;;;20.90;91.10;;;;;;5062978;28;20025;-76
2022/08/13 02:08:52;;;;;;;10.80;6.13;;;20.80;91.10;;;;;;5058377;28;20037;-75
2022/08/13 02:11:19;;;;;;;8.60;6.25;;;20.80;91.10;;;;;;5054490;28;20035;-75
2022/08/13 02:13:45;;;;;;;10.25;6.63;;;20.70;91.10;;;;;;5061493;28;20029;-75
2022/08/13 02:16:10;;;;;;;11.00;6.30;;;20.70;91.00;;;;;;5050182;28;20095;-75
2022/08/13 02:18:38;;;;;;;11.27;6.47;;;20.70;91.00;;;;;;5066199;28;20311;-75
2022/08/13 02:21:04;;;;;;;8.63;6.28;;;20.60;91.00;;;;;;5070212;28;20460;-75
2022/08/13 02:23:32;;;;;;;10.60;6.28;;;20.60;91.00;;;;;;5069966;28;20023;-75
2022/08/13 02:26:05;;;;;;;9.93;5.90;;;20.60;91.00;;;;;;5059199;28;20021;-75
2022/08/13 02:28:39;;;;;;;9.13;6.50;;;20.60;90.90;;;;;;5054966;28;20033;-76
2022/08/13 02:31:06;;;;;;;12.68;6.82;;;20.60;90.80;;;;;;5061292;28;20025;-75
2022/08/13 02:33:33;;;;;;;8.85;6.03;;;20.60;90.70;;;;;;5070165;28;20058;-75
2022/08/13 02:35:59;;;;;;;8.88;6.13;;;20.60;90.60;;;;;;5070380;28;20498;-75
2022/08/13 02:38:25;;;;;;;10.70;6.38;;;20.60;90.50;;;;;;5054653;28;20072;-76
2022/08/13 02:43:35;;;;;;;11.95;6.10;;;20.50;90.50;;;;;;5055114;28;20588;-75
2022/08/13 02:46:01;;;;;;;8.40;5.95;;;20.50;90.50;;;;;;5068359;28;20013;-75
2022/08/13 02:48:29;;;;;;;10.05;5.63;;;20.50;90.40;;;;;;5052035;28;20046;-75
2022/08/13 02:50:55;;;;;;;9.88;5.65;;;20.50;90.50;;;;;;5054786;28;20068;-75
2022/08/13 02:53:23;;;;;;;8.00;5.70;;;20.40;90.40;;;;;;5063773;28;20048;-75
2022/08/13 02:55:50;;;;;;;10.02;5.82;;;20.40;90.30;;;;;;5069721;28;20038;-75
2022/08/13 02:58:17;;;;;;;7.90;6.07;;;20.40;90.20;;;;;;5071908;28;20024;-75
2022/08/13 03:00:48;;;;;;;9.73;6.10;;;20.40;90.10;;;;;;5063446;28;20027;-75
2022/08/13 03:03:16;;;;;;;10.15;5.93;;;20.40;90.00;;;;;;5071305;28;20044;-75
2022/08/13 03:05:41;;;;;;;6.70;5.32;;;20.40;90.00;;;;;;5066522;28;20124;-75
2022/08/13 03:08:08;;;;;;;8.55;5.50;;;20.40;89.70;;;;;;5062022;28;20095;-75
2022/08/13 03:10:33;;;;;;;6.57;5.57;;;20.40;89.60;;;;;;5057926;28;20500;-76
2022/08/13 03:13:04;;;;;;;7.30;5.47;;;20.30;89.40;;;;;;5070035;28;20048;-76
2022/08/13 03:15:30;;;;;;;9.65;5.47;;;20.30;89.30;;;;;;5066356;28;20355;-75
2022/08/13 03:17:56;;;;;;;7.43;6.00;;;20.30;89.20;;;;;;5062654;28;20017;-75
2022/08/13 03:20:22;;;;;;;9.23;5.53;;;20.30;89.10;;;;;;5061423;28;20028;-76
2022/08/13 03:22:53;;;;;;;8.63;5.93;;;20.30;89.00;;;;;;5070559;28;20085;-75
2022/08/13 03:25:20;;;;;;;8.75;6.40;;;20.20;89.00;;;;;;5063233;28;20017;-75
2022/08/13 03:27:47;;;;;;;7.53;5.90;;;20.20;89.10;;;;;;5058890;28;20021;-75
2022/08/13 03:30:14;;;;;;;8.23;5.80;;;20.20;89.40;;;;;;5064528;28;20029;-75
2022/08/13 03:32:42;;;;;;;9.07;5.90;;;20.10;89.50;;;;;;5052847;28;20481;-75
2022/08/13 03:35:13;;;;;;;8.80;5.63;;;20.10;89.70;;;;;;5052567;28;20542;-75
2022/08/13 03:37:40;;;;;;;8.68;5.93;;;20.00;89.90;;;;;;5062547;28;20047;-75
2022/08/13 03:40:06;;;;;;;7.28;5.68;;;20.00;90.10;;;;;;5058362;28;20029;-75
2022/08/13 03:42:32;;;;;;;10.18;5.70;;;19.90;90.20;;;;;;5057598;28;20029;-75
2022/08/13 03:44:58;;;;;;;12.45;5.72;;;19.80;90.20;;;;;;5066832;28;20021;-76
2022/08/13 03:47:23;;;;;;;12.18;6.53;;;19.80;90.30;;;;;;5052404;28;20024;-75
2022/08/13 03:49:49;;;;;;;7.60;5.90;;;19.80;90.40;;;;;;5067085;28;20035;-76
2022/08/13 03:52:15;;;;;;;9.88;5.85;;;19.80;90.50;;;;;;5072409;28;20524;-75
2022/08/13 03:54:41;;;;;;;8.93;6.15;;;19.70;90.40;;;;;;5070913;28;20025;-75
2022/08/13 03:57:08;;;;;;;10.40;6.18;;;19.70;90.50;;;;;;5056822;28;20103;-75
2022/08/13 03:59:34;;;;;;;7.85;5.95;;;19.70;90.50;;;;;;5071664;28;20028;-77
2022/08/13 04:02:01;;;;;;;10.18;6.07;;;19.70;90.60;;;;;;5070510;28;20029;-75
2022/08/13 04:04:29;;;;;;;11.48;6.05;;;19.60;90.70;;;;;;5063303;28;20469;-75
2022/08/13 04:06:57;;;;;;;10.07;6.10;;;19.60;90.80;;;;;;5071546;28;20115;-75
2022/08/13 04:09:23;;;;;;;11.48;6.03;;;19.60;90.80;;;;;;5071843;28;20487;-75
2022/08/13 04:11:48;;;;;;;8.25;5.90;;;19.50;90.90;;;;;;5073035;28;20021;-75
2022/08/13 04:14:14;;;;;;;7.85;6.03;;;19.50;91.00;;;;;;5065862;28;20105;-75
2022/08/13 04:16:42;;;;;;;8.30;5.90;;;19.40;91.00;;;;;;5060500;28;20159;-75
2022/08/13 04:19:08;;;;;;;7.45;6.00;;;19.40;91.10;;;;;;5044288;28;20028;-75
2022/08/13 04:21:37;;;;;;;13.38;6.15;;;19.30;91.20;;;;;;5053376;28;20456;-75
2022/08/13 04:24:04;;;;;;;10.73;6.20;;;19.40;91.30;;;;;;5055512;28;20104;-75
2022/08/13 04:26:30;;;;;;;7.65;6.13;;;19.30;91.30;;;;;;5066821;28;20070;-75
2022/08/13 04:28:57;;;;;;;8.90;5.97;;;19.30;91.30;;;;;;5053391;28;20124;-75
2022/08/13 04:31:23;;;;;;;6.72;5.72;;;19.30;91.30;;;;;;5071492;28;20024;-76
2022/08/13 04:33:49;;;;;;;8.35;5.82;;;19.30;91.20;;;;;;5068409;28;20048;-75
2022/08/13 04:36:16;;;;;;;10.30;6.10;;;19.30;91.20;;;;;;5071083;28;20191;-75
2022/08/13 04:38:42;;;;;;;11.05;5.80;;;19.30;91.10;;;;;;5042355;28;20048;-75
2022/08/13 04:41:07;;;;;;;8.68;5.97;;;19.40;91.10;;;;;;5061377;28;20023;-76
2022/08/13 04:43:33;;;;;;;9.07;6.07;;;19.30;91.20;;;;;;5059940;28;20024;-76
2022/08/13 04:46:00;;;;;;;8.93;5.72;;;19.30;91.20;;;;;;5052446;28;20028;-76
2022/08/13 04:48:28;;;;;;;11.25;6.10;;;19.30;91.30;;;;;;5071285;28;20021;-75
2022/08/13 04:50:54;;;;;;;7.43;6.18;;;19.30;91.40;;;;;;5071089;28;20473;-76
2022/08/13 04:53:25;;;;;;;11.95;6.07;;;19.30;91.40;;;;;;5056314;28;20036;-75
2022/08/13 04:55:51;;;;;;;7.07;5.97;;;19.30;91.50;;;;;;5052209;28;20032;-76
2022/08/13 04:58:17;;;;;;;10.23;6.10;;;19.20;91.50;;;;;;5054916;28;20014;-75
2022/08/13 05:00:44;;;;;;;7.53;5.78;;;19.20;91.50;;;;;;5056852;28;20028;-77
2022/08/13 05:03:18;;;;;;;8.68;5.78;;;19.20;91.90;;;;;;5063315;28;20099;-76
2022/08/13 05:05:47;;;;;;;10.93;5.97;;;19.20;91.60;;;;;;5057267;28;20503;-76
2022/08/13 05:08:16;;;;;;;7.72;6.25;;;19.20;91.60;;;;;;5064791;28;20025;-77
2022/08/13 05:10:44;;;;;;;10.27;5.95;;;19.20;91.70;;;;;;5070844;28;20033;-76
2022/08/13 05:13:27;;;;;;;11.48;6.00;;;19.20;91.80;;;;;;5071448;28;20028;-76
2022/08/13 05:15:55;;;;;;;9.32;6.00;;;19.20;91.80;;;;;;5070578;28;20380;-76
2022/08/13 05:18:22;;;;;;;10.45;6.40;;;19.20;91.90;;;;;;5059737;28;20033;-75
2022/08/13 05:20:48;;;;;;;9.43;5.72;;;19.20;91.90;;;;;;5064681;28;20378;-76
2022/08/13 05:23:14;;;;;;;7.45;5.88;;;19.30;91.90;;;;;;5070604;28;20020;-76
2022/08/13 05:25:40;;;;;;;10.60;6.28;;;19.30;91.90;;;;;;5070331;28;20388;-76
2022/08/13 05:28:08;;;;;;;10.20;6.50;;;19.30;91.80;;;;;;5062883;28;20057;-76
2022/08/13 05:30:37;;;;;;;9.63;6.40;;;19.30;91.70;;;;;;5054401;28;20484;-76
2022/08/13 05:33:18;;;;;;;12.13;6.53;;;19.40;91.70;;;;;;5036009;28;20020;-76
2022/08/13 05:35:45;;;;;;;8.73;6.45;;;19.40;91.80;;;;;;5050474;28;20033;-75
2022/08/13 05:38:11;;;;;;;9.77;6.53;;;19.40;91.80;;;;;;5066236;28;20098;-76
2022/08/13 05:40:41;;;;;;;11.57;6.10;;;19.50;92.00;;;;;;5066571;28;20082;-75
2022/08/13 05:43:15;;;;;;;8.90;6.03;;;19.50;92.10;;;;;;5064619;28;20021;-76
2022/08/13 05:45:57;;;;;;;11.30;6.55;;;19.50;92.20;;;;;;5066014;28;20452;-74
2022/08/13 05:48:23;;;;;;;8.45;6.00;;;19.50;92.20;;;;;;5069174;28;20522;-73
2022/08/13 05:50:49;;;;;;;14.13;6.10;;;19.50;92.20;;;;;;5067975;28;20457;-73
2022/08/13 05:53:15;;;;;;;14.38;6.40;;;19.60;92.10;;;;;;5056872;28;20020;-73
2022/08/13 05:55:41;;;;;;;10.70;5.93;;;19.60;92.00;;;;;;5062404;28;20078;-73
2022/08/13 05:58:10;;;;;;;9.57;6.15;;;19.60;91.80;;;;;;5067107;28;20017;-73
2022/08/13 06:03:27;;;;;;;10.15;5.88;;;19.80;92.10;;;;;;5067716;28;20105;-73
2022/08/13 06:06:15;;;;;;;14.00;5.93;;;19.80;91.60;;;;;;5052381;28;20029;-73
2022/08/13 06:08:43;;;;;;;11.90;5.43;;;19.90;91.50;;;;;;5063107;28;20504;-73
2022/08/13 06:11:16;;;;;;;8.77;5.63;;;19.90;91.50;;;;;;5068127;28;20117;-73
2022/08/13 06:13:43;;;;;;;9.65;5.32;;;20.00;91.40;;;;;;5066769;28;20029;-73
2022/08/13 06:16:11;;;;;;;9.13;5.03;;;20.00;91.40;;;;;;5068490;28;20016;-74
2022/08/13 06:18:40;;;;;;;10.75;5.32;;;20.00;91.30;;;;;;5068672;28;20048;-74
2022/08/13 06:21:07;;;;;;;10.18;5.70;;;20.10;91.20;;;;;;5067845;28;20035;-74
2022/08/13 06:23:36;;;;;;;9.20;5.38;;;20.20;91.10;;;;;;5068981;28;20024;-75
2022/08/13 06:26:04;;;;;;;13.85;5.78;;;20.20;91.00;;;;;;5067537;28;20418;-73
2022/08/13 06:28:32;;;;;;;9.13;5.25;;;20.20;91.20;;;;;;5068879;28;20029;-73
2022/08/13 06:31:04;;;;;;;12.18;5.43;;;20.30;90.80;;;;;;5066259;28;20028;-73
2022/08/13 06:33:32;;;;;;;7.95;5.38;;;20.40;90.70;;;;;;5054941;28;20016;-73
2022/08/13 06:35:59;;;;;;;7.53;4.80;;;20.40;90.50;;;;;;5071754;28;20029;-73
2022/08/13 06:38:31;;;;;;;8.13;4.63;;;20.50;90.30;;;;;;5051208;28;20053;-73
2022/08/13 06:40:59;;;;;;;7.03;4.45;;;20.60;90.20;;;;;;5071279;28;20051;-73
2022/08/13 06:43:29;;;;;;;6.93;4.13;;;20.70;90.10;;;;;;5071956;28;20633;-73
2022/08/13 06:45:58;;;;;;;8.80;4.18;;;20.70;89.80;;;;;;5048638;28;20039;-74
2022/08/13 06:48:24;;;;;;;8.43;4.30;;;20.80;89.20;;;;;;5072636;28;20114;-74
2022/08/13 06:50:50;;;;;;;8.77;4.10;;;20.90;88.80;;;;;;5041373;28;20540;-74
2022/08/13 06:53:17;;;;;;;6.57;4.40;;;20.90;88.00;;;;;;5057311;28;20029;-74
2022/08/13 06:55:45;;;;;;;9.65;3.67;;;21.00;87.80;;;;;;5071516;28;20013;-74
2022/08/13 06:58:11;;;;;;;7.95;4.03;;;21.10;88.20;;;;;;5071914;28;20016;-74
2022/08/13 07:00:39;;;;;;;7.90;3.33;;;21.20;87.20;;;;;;5072866;28;20032;-74
2022/08/13 07:03:06;;;;;;;9.40;3.78;;;21.30;85.90;;;;;;5066446;28;20044;-74
2022/08/13 07:05:33;;;;;;;6.55;3.08;;;21.40;84.50;;;;;;5057518;28;20013;-74
2022/08/13 07:08:02;;;;;;;8.23;3.20;;;21.60;83.70;;;;;;5057083;28;20021;-74
2022/08/13 07:10:28;;;;;;;7.13;3.45;;;21.70;83.30;;;;;;5067499;28;20332;-74
2022/08/13 07:12:56;;;;;;;5.53;3.30;;;21.90;81.30;;;;;;5070094;28;20035;-74
2022/08/13 07:15:22;;;;;;;9.45;3.38;;;22.00;80.40;;;;;;5070767;28;20537;-74
2022/08/13 07:17:48;;;;;;;6.32;3.08;;;22.20;79.50;;;;;;5050223;28;20017;-73
2022/08/13 07:20:15;;;;;;;5.90;3.10;;;22.30;78.50;;;;;;5053174;28;20016;-73
2022/08/13 07:22:41;;;;;;;7.97;3.00;;;22.50;77.60;;;;;;5069707;28;20021;-77
2022/08/13 07:25:10;;;;;;;9.85;2.75;;;22.60;77.00;;;;;;5052953;28;20034;-76
2022/08/13 07:27:41;;;;;;;8.65;3.05;;;22.80;76.30;;;;;;5071912;28;20021;-76
2022/08/13 07:30:08;;;;;;;6.97;3.30;;;23.00;75.60;;;;;;5071826;28;20111;-76
2022/08/13 07:32:37;;;;;;;4.38;3.35;;;23.10;74.90;;;;;;5072290;28;20114;-77
2022/08/13 07:35:04;;;;;;;6.20;3.15;;;23.20;74.00;;;;;;5063487;28;20013;-77
2022/08/13 07:37:30;;;;;;;6.25;3.30;;;23.40;73.40;;;;;;5067694;28;20488;-77
2022/08/13 07:39:56;;;;;;;5.85;3.10;;;23.60;72.60;;;;;;5072334;28;20036;-77
2022/08/13 07:42:23;;;;;;;7.97;2.90;;;23.70;72.60;;;;;;5068237;28;20021;-77
2022/08/13 07:44:52;;;;;;;11.15;3.00;;;23.80;71.20;;;;;;5070393;28;20495;-77
2022/08/13 07:47:19;;;;;;;5.38;2.70;;;23.90;70.90;;;;;;5042631;28;20049;-78
2022/08/13 07:49:46;;;;;;;7.32;2.90;;;24.10;70.30;;;;;;5064065;28;20024;-78
2022/08/13 07:52:13;;;;;;;9.18;2.83;;;24.30;69.70;;;;;;5072276;28;20085;-78
2022/08/13 07:54:41;;;;;;;5.88;2.80;;;24.50;69.10;;;;;;5067932;28;20045;-78
2022/08/13 07:57:08;;;;;;;7.57;2.63;;;24.60;68.30;;;;;;5060544;28;20434;-78
2022/08/13 07:59:36;;;;;;;4.55;3.00;;;24.80;68.00;;;;;;5053378;28;20124;-79
2022/08/13 08:02:05;;;;;;;8.85;2.97;;;24.90;67.30;;;;;;5024291;28;20091;-78
2022/08/13 08:04:34;;;;;;;4.50;2.90;;;25.10;66.80;;;;;;5060821;28;20118;-78
2022/08/13 08:07:01;;;;;;;6.03;2.90;;;25.20;66.40;;;;;;5070189;28;20013;-78
2022/08/13 08:09:31;;;;;;;6.45;3.00;;;25.40;65.80;;;;;;5058051;28;20093;-79
2022/08/13 08:14:44;;;;;;;7.63;2.80;;;25.80;64.80;;;;;;5071710;28;20494;-78
2022/08/13 08:17:11;;;;;;;3.72;2.70;;;26.00;64.00;;;;;;5060986;28;20025;-78
2022/08/13 08:19:41;;;;;;;5.63;2.83;;;26.10;63.00;;;;;;5072258;28;20093;-78
2022/08/13 08:22:08;;;;;;;5.32;2.75;;;26.20;62.40;;;;;;5053597;28;20028;-78
2022/08/13 08:24:35;;;;;;;5.30;2.88;;;26.30;62.20;;;;;;5071348;28;20033;-78
2022/08/13 08:27:06;;;;;;;3.28;2.75;;;26.50;61.80;;;;;;5071707;28;20020;-78
2022/08/13 08:29:33;;;;;;;6.10;2.75;;;26.70;61.10;;;;;;5059528;28;20506;-78
2022/08/13 08:32:08;;;;;;;8.73;2.65;;;26.80;60.80;;;;;;5069192;28;20024;-79
2022/08/13 08:34:35;;;;;;;6.88;2.70;;;26.90;60.60;;;;;;5069125;28;20093;-78
2022/08/13 08:37:01;;;;;;;3.28;2.50;;;27.00;60.50;;;;;;5064882;28;20028;-78
2022/08/13 08:44:59;;;;;;;6.88;2.60;;;27.50;59.10;;;;;;5065306;28;20047;-78
2022/08/13 08:47:28;;;;;;;5.57;2.40;;;27.60;58.70;;;;;;5064511;28;20074;-78
2022/08/13 08:49:57;;;;;;;4.90;2.50;;;27.80;58.60;;;;;;5038139;28;20396;-78
2022/08/13 08:53:19;;;;;;;6.07;2.55;;;28.00;58.30;;;;;;5070718;28;20067;-78
2022/08/13 08:55:14;;;;;;;6.13;2.20;;;28.10;57.80;;;;;;5069228;28;20451;-77
2022/08/13 08:57:44;;;;;;;5.60;2.20;;;28.30;57.40;;;;;;5068170;28;20396;-78
2022/08/13 09:00:15;;;;;;;7.28;2.38;;;28.40;57.10;;;;;;5070938;28;20147;-78
2022/08/13 09:02:42;;;;;;;6.72;2.58;;;28.50;56.10;;;;;;5067528;28;20068;-78
2022/08/13 09:05:13;;;;;;;4.97;2.20;;;28.60;55.80;;;;;;5067012;28;20009;-78
2022/08/13 09:07:41;;;;;;;6.88;2.40;;;28.80;55.30;;;;;;5068231;28;20047;-76
2022/08/13 09:10:12;;;;;;;6.20;2.10;;;28.80;54.90;;;;;;5070391;28;20036;-78
2022/08/13 09:12:40;;;;;;;8.55;2.05;;;28.90;54.50;;;;;;5067367;28;20078;-78
2022/08/13 09:15:07;;;;;;;6.57;1.98;;;29.00;54.20;;;;;;5066156;28;20031;-78
2022/08/13 09:17:33;;;;;;;3.13;2.45;;;29.10;54.00;;;;;;5053053;28;20380;-78
2022/08/13 09:19:59;;;;;;;3.63;2.13;;;29.30;53.90;;;;;;5061660;28;20020;-78
2022/08/13 09:22:24;;;;;;;8.15;2.33;;;29.50;53.70;;;;;;5069279;28;20512;-78
2022/08/13 09:24:58;;;;;;;5.68;2.42;;;29.60;53.50;;;;;;5070948;28;20020;-78
2022/08/13 09:27:27;;;;;;;5.50;2.38;;;29.70;53.20;;;;;;5051925;28;20193;-76
2022/08/13 09:29:53;;;;;;;6.13;2.33;;;29.80;52.90;;;;;;5050496;28;20530;-79
2022/08/13 09:32:19;;;;;;;3.30;2.03;;;29.90;51.90;;;;;;5064422;28;20028;-78
2022/08/13 09:34:45;;;;;;;6.88;2.47;;;29.90;51.70;;;;;;5068102;28;20143;-78
2022/08/13 09:37:12;;;;;;;5.35;2.55;;;30.00;51.60;;;;;;5062183;28;20099;-77
2022/08/13 09:39:53;;;;;;;3.15;2.30;;;30.20;51.30;;;;;;5065866;28;20025;-77
2022/08/13 09:42:33;;;;;;;5.25;1.90;;;30.30;51.20;;;;;;5070275;28;20028;-76
2022/08/13 09:45:00;;;;;;;5.78;2.00;;;30.30;51.10;;;;;;5057074;28;20032;-77
2022/08/13 09:47:26;;;;;;;5.07;1.88;;;30.40;51.00;;;;;;5065199;28;20048;-77
2022/08/13 09:49:52;;;;;;;14.27;3.67;;;30.50;51.00;;;;;;5065261;28;20029;-77
2022/08/13 09:52:20;;;;;;;12.45;3.42;;;30.60;50.90;;;;;;5060971;28;20029;-78
2022/08/13 09:54:47;;;;;;;6.68;2.17;;;30.70;50.50;;;;;;5053418;28;20017;-78
2022/08/13 09:57:13;;;;;;;6.00;2.45;;;30.70;50.00;;;;;;5036449;28;20071;-78
2022/08/13 09:59:38;;;;;;;5.55;2.05;;;30.70;49.40;;;;;;5060151;28;20102;-76
2022/08/13 10:02:12;;;;;;;7.13;1.90;;;30.70;49.20;;;;;;5059919;28;20142;-76
2022/08/13 10:04:39;;;;;;;5.80;1.92;;;30.80;49.10;;;;;;5060294;28;20081;-76
2022/08/13 10:07:07;;;;;;;5.20;2.20;;;30.80;48.60;;;;;;5071707;28;20029;-78
2022/08/13 10:09:34;;;;;;;5.85;1.95;;;30.80;48.60;;;;;;5074482;28;20417;-78
2022/08/13 10:12:01;;;;;;;5.18;2.20;;;30.80;48.50;;;;;;5073205;28;20032;-78
2022/08/13 10:14:27;;;;;;;3.88;1.80;;;30.90;48.30;;;;;;5063001;28;20123;-80
2022/08/13 10:16:53;;;;;;;4.85;2.10;;;31.00;48.20;;;;;;5067690;28;20091;-78
2022/08/13 10:19:19;;;;;;;4.35;1.90;;;31.10;48.00;;;;;;5069183;28;20033;-79
2022/08/13 10:21:44;;;;;;;6.30;1.90;;;31.10;48.00;;;;;;5036016;28;20488;-79
2022/08/13 10:24:10;;;;;;;3.47;1.80;;;31.20;48.00;;;;;;5068165;28;20411;-79
2022/08/13 10:26:40;;;;;;;5.15;1.90;;;31.40;47.60;;;;;;5035806;28;20413;-76
2022/08/13 10:29:08;;;;;;;3.72;1.90;;;31.50;47.10;;;;;;5058424;28;20020;-76
2022/08/13 10:31:34;;;;;;;4.28;1.77;;;31.60;47.00;;;;;;5073378;28;20480;-77
2022/08/13 10:34:00;;;;;;;5.18;1.80;;;31.60;46.90;;;;;;5071194;28;20056;-76
2022/08/13 10:36:27;;;;;;;5.80;2.10;;;31.60;46.70;;;;;;5053634;28;20051;-76
2022/08/13 10:38:53;;;;;;;3.33;1.50;;;31.70;46.40;;;;;;5062792;28;20109;-78
2022/08/13 10:41:18;;;;;;;5.85;2.00;;;31.70;46.70;;;;;;5073385;28;20411;-76
2022/08/13 10:43:44;;;;;;;5.85;1.88;;;31.70;46.30;;;;;;5073071;28;20071;-77
2022/08/13 10:46:16;;;;;;;3.17;1.92;;;31.70;46.00;;;;;;5059573;28;20207;-72
2022/08/13 10:48:42;;;;;;;4.07;2.05;;;31.80;46.00;;;;;;5074106;28;20021;-74
2022/08/13 10:51:08;;;;;;;2.92;2.13;;;31.90;45.90;;;;;;5065523;28;20021;-75
2022/08/13 10:56:18;;;;;;;7.50;2.38;;;32.00;45.60;;;;;;5063794;28;20048;-77
2022/08/13 10:58:44;;;;;;;7.07;2.22;;;32.10;45.10;;;;;;5067417;28;20017;-76
2022/08/13 11:01:10;;;;;;;5.28;2.22;;;32.00;44.90;;;;;;5061943;28;20021;-75
2022/08/13 11:03:36;;;;;;;6.00;2.30;;;32.00;44.70;;;;;;5055177;28;20027;-76
2022/08/13 11:06:04;;;;;;;6.10;2.45;;;32.10;44.50;;;;;;5057377;28;20027;-76
2022/08/13 11:08:34;;;;;;;4.68;2.20;;;32.10;44.20;;;;;;5066963;28;20027;-76
2022/08/13 11:11:00;;;;;;;4.60;2.10;;;32.30;44.00;;;;;;5048344;28;20102;-76
2022/08/13 11:13:26;;;;;;;4.72;1.80;;;32.40;43.50;;;;;;5066138;28;20082;-76
2022/08/13 11:15:51;;;;;;;4.95;2.13;;;32.40;42.70;;;;;;5062916;28;20016;-77
2022/08/13 11:18:18;;;;;;;3.10;1.80;;;32.50;42.40;;;;;;5071897;28;20097;-76
2022/08/13 11:21:02;;;;;;;3.30;2.10;;;32.50;42.20;;;;;;5058301;28;20107;-76
2022/08/13 11:23:29;;;;;;;6.18;1.70;;;32.60;42.20;;;;;;5061886;28;20429;-76
2022/08/13 11:25:54;;;;;;;4.28;1.88;;;32.60;42.00;;;;;;5066238;28;20052;-76
2022/08/13 11:28:20;;;;;;;5.40;2.03;;;32.60;42.10;;;;;;5068760;28;20049;-77
2022/08/13 11:30:50;;;;;;;7.28;1.80;;;32.70;42.10;;;;;;5050712;28;20032;-76
2022/08/13 11:33:16;;;;;;;1.73;1.63;;;32.80;42.60;;;;;;5051744;28;20079;-76
2022/08/13 11:35:43;;;;;;;3.83;1.65;;;33.00;41.80;;;;;;5073928;28;20442;-76
2022/08/13 11:38:11;;;;;;;4.25;1.38;;;33.00;41.50;;;;;;5068943;28;20102;-75
2022/08/13 11:40:38;;;;;;;4.40;1.75;;;33.10;40.90;;;;;;5070748;28;20056;-75
2022/08/13 11:43:04;;;;;;;5.38;1.60;;;33.20;40.70;;;;;;5045635;28;20012;-77
2022/08/13 11:45:30;;;;;;;4.40;1.85;;;33.20;40.60;;;;;;5067459;28;20017;-76
2022/08/13 11:47:55;;;;;;;1.83;1.60;;;33.30;40.70;;;;;;5074280;28;20078;-77
2022/08/13 11:50:21;;;;;;;3.38;1.50;;;33.40;40.60;;;;;;5073471;28;20096;-76
2022/08/13 11:52:47;;;;;;;4.68;1.30;;;33.50;40.30;;;;;;5059312;28;20124;-76
2022/08/13 11:55:12;;;;;;;2.75;1.25;;;33.60;40.20;;;;;;5067258;28;20079;-77
2022/08/13 11:57:38;;;;;;;1.85;1.42;;;33.60;39.90;;;;;;5073292;28;20031;-76
2022/08/13 12:00:05;;;;;;;3.22;1.20;;;33.70;39.40;;;;;;5065317;28;20447;-76
2022/08/13 12:02:31;;;;;;;2.38;1.20;;;33.80;39.40;;;;;;5069181;28;20013;-76
2022/08/13 12:04:57;;;;;;;1.85;1.27;;;33.80;38.60;;;;;;5061686;28;20036;-77
2022/08/13 12:07:24;;;;;;;2.78;1.23;;;33.80;38.40;;;;;;5058643;28;20452;-76
2022/08/13 12:09:50;;;;;;;3.88;1.42;;;33.80;38.40;;;;;;5061595;28;20036;-76
2022/08/13 12:12:15;;;;;;;3.38;1.40;;;33.80;38.00;;;;;;5066592;28;20024;-76
2022/08/13 12:14:41;;;;;;;6.43;1.50;;;33.80;38.20;;;;;;5064010;28;20028;-77
2022/08/13 12:17:07;;;;;;;2.97;1.38;;;33.90;38.40;;;;;;5039253;28;20024;-76
2022/08/13 12:19:33;;;;;;;3.38;1.27;;;34.00;38.30;;;;;;5066899;28;20024;-77
2022/08/13 12:22:00;;;;;;;3.85;1.30;;;34.10;37.80;;;;;;5067472;28;20111;-76
2022/08/13 12:24:26;;;;;;;3.58;1.40;;;34.10;37.50;;;;;;5054521;28;20021;-76
2022/08/13 12:26:52;;;;;;;4.22;1.40;;;34.10;37.20;;;;;;5053844;28;20028;-76
2022/08/13 12:29:18;;;;;;;2.33;1.50;;;34.10;37.50;;;;;;5070850;28;20739;-77
2022/08/13 12:31:43;;;;;;;2.85;1.30;;;34.20;37.70;;;;;;5072804;28;20035;-76
2022/08/13 12:34:09;;;;;;;6.47;1.80;;;34.20;37.50;;;;;;5072008;28;20016;-75
2022/08/13 12:36:35;;;;;;;2.45;1.40;;;34.30;37.40;;;;;;5061198;28;20041;-75
2022/08/13 12:39:01;;;;;;;4.97;1.40;;;34.40;37.20;;;;;;5070581;28;20115;-75
2022/08/13 12:41:32;;;;;;;1.90;1.40;;;34.40;36.90;;;;;;5060805;28;20036;-75
2022/08/13 12:43:57;;;;;;;4.28;1.52;;;34.40;36.30;;;;;;5039729;28;20021;-74
2022/08/13 12:46:23;;;;;;;3.30;1.58;;;34.50;36.30;;;;;;5077158;28;20023;-75
2022/08/13 12:48:49;;;;;;;2.22;1.42;;;34.50;36.70;;;;;;5070693;28;20455;-75
2022/08/13 12:51:15;;;;;;;2.85;1.42;;;34.50;36.70;;;;;;5079434;28;20056;-75
2022/08/13 12:53:41;;;;;;;2.92;1.73;;;34.60;37.10;;;;;;5054035;28;20413;-74
2022/08/13 12:56:06;;;;;;;3.83;1.60;;;34.70;36.90;;;;;;5060378;28;20020;-74
2022/08/13 12:58:32;;;;;;;2.75;1.60;;;34.70;37.20;;;;;;5082258;28;20496;-75
2022/08/13 13:00:59;;;;;;;3.53;1.50;;;34.80;36.40;;;;;;5081547;28;20021;-74
2022/08/13 13:03:28;;;;;;;7.72;1.52;;;34.80;36.40;;;;;;5076902;28;20028;-73
2022/08/13 13:05:55;;;;;;;5.70;1.83;;;34.90;36.30;;;;;;5079923;28;20039;-73
2022/08/13 13:08:30;;;;;;;1.95;1.63;;;35.00;36.20;;;;;;5059458;28;20025;-73
2022/08/13 13:10:58;;;;;;;3.55;1.58;;;35.00;36.00;;;;;;5070108;28;20079;-74
2022/08/13 13:13:25;;;;;;;7.78;1.90;;;35.00;36.10;;;;;;5066611;28;20025;-73